Terminal Aerodrome Forecast
Issued by NWS

Home | Current Version | Previous Version | Text Only | Print | Product List | Glossary On
Versions: 1 2 3 4 5 6 7 8 9 10 11 12 13 14
806
FTUS46 KLOX 132347 AAA
TAFBUR
TAF AMD
KBUR 132347Z 1400/1424 18008KT 6SM HZ SKC
     FM140200 VRB03KT P6SM SKC
     FM140600 35005KT P6SM SKC
     FM142100 16006KT P6SM SKC=

USA.gov is the U.S. government's official web portal to all federal, state and local government web resources and services.